Latest Weather Observations for Minnipa RS

IDS60801

Issued at 7:21 am CDT Saturday 16 October 2021 (issued every 10 minutes, with the page automatically refreshed every 10 minutes)

About weather observations | Map of weather stations | Latest weather observations for SA | Other Formats
Station Details ID: 018195 Name: MINNIPA PIRSA Lat: -32.84 Lon: 135.15 Height: 165.0 m
Data from the previous 72 hours. | See also: Recent months at Minnipa RS
Date/Time
CDT
Temp
°C
App
Temp
°C
Dew
Point
°C
Rel
Hum
%
Delta-T
°C
Wind Press
QNH
hPa
Press
MSL
hPa
Rain since
9am
mm
Dir  Spd
km/h
Gust
km/h
Spd
kts
Gust
kts
16/07:00am 11.3 11.1 8.9 85 1.2 CALM 0 0 0 0 1018.6 1018.2 0.0
16/06:30am 11.4 10.0 8.8 84 1.3 SSE 6 6 3 3 1018.3 1017.9 0.0
16/06:00am 11.4 11.1 8.8 84 1.3 CALM 0 0 0 0 1018.1 1017.7 0.0
16/05:30am 11.5 10.1 8.7 83 1.4 S 6 9 3 5 1018.1 1017.7 0.0
16/05:00am 11.5 9.8 8.5 82 1.5 S 7 9 4 5 1018.0 1017.6 0.0
16/04:30am 11.5 10.5 8.7 83 1.4 SSW 4 6 2 3 1018.0 1017.6 0.0
16/04:00am 11.6 10.0 8.6 82 1.5 SSW 7 7 4 4 1018.2 1017.8 0.0
16/03:30am 11.7 9.9 8.0 78 1.8 S 7 9 4 5 1018.4 1018.0 0.0
16/03:00am 11.6 10.0 8.1 79 1.7 SW 6 7 3 4 1018.4 1018.0 0.0
16/02:30am 12.1 9.3 7.0 71 2.5 SSE 11 17 6 9 1018.5 1018.1 0.0
16/02:00am 11.9 9.2 7.4 74 2.2 SSE 11 15 6 8 1018.6 1018.2 0.0
16/01:30am 12.0 9.0 7.9 76 2.0 S 13 17 7 9 1018.8 1018.4 0.0
16/01:00am 11.8 9.4 8.8 82 1.5 SSE 11 15 6 8 1019.0 1018.6 0.0
16/12:30am 11.6 9.2 8.8 83 1.4 S 11 15 6 8 1019.2 1018.8 0.0
16/12:00am 11.5 9.1 8.7 83 1.4 S 11 13 6 7 1019.2 1018.8 0.0
 
Date/Time
CDT
Temp
°C
App
Temp
°C
Dew
Point
°C
Rel
Hum
%
Delta-T
°C
Wind Press
QNH
hPa
Press
MSL
hPa
Rain since
9am
mm
Dir  Spd
km/h
Gust
km/h
Spd
kts
Gust
kts
15/11:30pm 10.3 8.6 8.2 87 1.0 SSW 7 11 4 6 1019.2 1018.8 0.0
15/11:00pm 10.2 8.0 8.0 86 1.1 SSW 9 11 5 6 1019.3 1018.9 0.0
15/10:30pm 10.1 7.9 7.7 85 1.2 SSW 9 11 5 6 1019.3 1018.9 0.0
15/10:00pm 10.5 7.9 7.7 83 1.4 SSW 11 13 6 7 1019.2 1018.8 0.0
15/09:30pm 10.7 8.4 7.4 80 1.6 SSW 9 11 5 6 1018.9 1018.5 0.0
15/09:00pm 11.2 8.8 7.1 76 2.0 SSW 9 13 5 7 1018.7 1018.3 0.0
15/08:30pm 12.2 9.4 7.1 71 2.5 SSW 11 13 6 7 1018.3 1017.9 0.0
15/08:00pm 13.7 9.8 7.0 64 3.3 SW 17 24 9 13 1018.0 1017.6 0.0
15/07:30pm 14.7 10.6 7.7 63 3.5 SSW 19 28 10 15 1017.6 1017.2 0.0
15/07:00pm 14.8 10.3 7.1 60 3.8 SSW 20 30 11 16 1017.2 1016.8 0.0
15/06:30pm 15.1 10.1 7.9 62 3.6 SSW 24 33 13 18 1016.9 1016.6 0.0
15/06:00pm 15.7 10.9 7.2 57 4.2 SSW 22 32 12 17 1016.7 1016.4 0.0
15/05:30pm 16.3 11.1 7.3 55 4.5 S 24 33 13 18 1016.4 1016.1 0.0
15/05:00pm 17.2 12.0 7.3 52 5.0 S 24 32 13 17 1016.2 1015.9 0.0
15/04:30pm 17.0 11.1 7.4 53 4.8 SSW 28 37 15 20 1015.9 1015.6 0.0
15/04:00pm 17.3 12.1 7.4 52 5.0 SW 24 33 13 18 1015.9 1015.6 0.0
15/03:30pm 17.0 11.5 7.6 54 4.8 S 26 41 14 22 1016.0 1015.7 0.0
15/03:00pm 18.1 12.3 8.1 52 5.2 SW 28 37 15 20 1016.2 1015.9 0.0
15/02:30pm 18.3 13.3 8.0 51 5.3 SSW 24 32 13 17 1016.5 1016.2 0.0
15/02:00pm 16.9 11.5 8.1 56 4.5 SW 26 41 14 22 1016.6 1016.3 0.0
15/01:30pm 16.7 10.2 8.1 57 4.4 SSW 32 41 17 22 1016.8 1016.5 0.0
15/01:00pm 16.8 11.1 8.2 57 4.4 SW 28 37 15 20 1016.9 1016.6 0.0
15/12:30pm 15.7 10.0 8.4 62 3.7 SW 28 39 15 21 1017.2 1016.8 0.0
15/12:00pm 16.2 10.7 9.2 63 3.6 SSW 28 35 15 19 1017.3 1016.9 0.0
15/11:30am 15.6 10.1 9.1 65 3.4 SSW 28 37 15 20 1017.5 1017.1 0.0
15/11:00am 15.0 9.5 9.1 68 3.0 SSW 28 37 15 20 1017.6 1017.2 0.0
15/10:30am 15.3 9.8 9.0 66 3.2 SSW 28 35 15 19 1017.3 1016.9 0.0
15/10:00am 14.2 8.9 8.6 69 2.8 SSW 26 35 14 19 1017.0 1016.7 0.0
15/09:30am 13.3 7.7 8.8 74 2.3 SSW 28 43 15 23 1016.8 1016.5 0.0
15/09:00am 13.1 8.1 9.4 78 1.9 SSW 26 37 14 20 1016.6 1016.3 2.2
15/08:30am 12.3 8.1 9.9 85 1.2 SSW 22 30 12 16 1016.3 1016.0 2.2
15/08:00am 11.5 8.2 9.6 88 1.0 SSW 17 22 9 12 1016.0 1015.7 2.2
15/07:30am 10.8 7.8 9.2 90 0.8 SSW 15 19 8 10 1015.6 1015.3 2.2
15/07:00am 10.9 7.5 9.3 90 0.8 SSW 17 22 9 12 1015.0 1014.7 2.2
15/06:30am 11.2 7.5 9.5 89 0.9 SSW 19 26 10 14 1014.4 1014.1 2.0
15/06:00am 11.4 7.8 9.8 90 0.8 SW 19 28 10 15 1013.9 1013.5 2.0
15/05:30am 11.5 7.7 9.9 90 0.8 SW 20 26 11 14 1013.8 1013.4 2.0
15/05:00am 11.9 8.2 10.1 89 0.9 SW 20 26 11 14 1013.5 1013.1 1.4
15/04:30am 11.5 8.0 10.1 91 0.7 SW 19 24 10 13 1013.1 1012.7 1.4
15/04:00am 11.3 7.5 9.7 90 0.8 WSW 20 30 11 16 1013.1 1012.7 1.4
15/03:30am 11.0 7.6 9.3 89 0.9 WSW 17 24 9 13 1012.9 1012.5 1.4
15/03:00am 10.3 7.2 8.7 90 0.8 WSW 15 22 8 12 1013.0 1012.6 1.4
15/02:30am 9.9 6.2 7.8 87 1.0 WSW 17 22 9 12 1013.0 1012.6 1.4
15/02:00am 9.9 6.5 7.7 86 1.1 W 15 20 8 11 1013.2 1012.8 1.4
15/01:30am 10.3 6.5 7.4 82 1.4 WSW 17 24 9 13 1013.3 1012.9 1.4
15/01:00am 9.5 5.5 6.8 83 1.3 W 17 20 9 11 1013.4 1013.0 1.4
15/12:30am 9.6 5.6 6.7 82 1.4 WSW 17 20 9 11 1013.5 1013.1 1.4
15/12:00am 9.1 5.8 6.4 83 1.3 W 13 19 7 10 1013.7 1013.3 1.4
 
Date/Time
CDT
Temp
°C
App
Temp
°C
Dew
Point
°C
Rel
Hum
%
Delta-T
°C
Wind Press
QNH
hPa
Press
MSL
hPa
Rain since
9am
mm
Dir  Spd
km/h
Gust
km/h
Spd
kts
Gust
kts
14/11:30pm 9.1 6.1 6.2 82 1.3 W 11 17 6 9 1013.7 1013.3 1.4
14/11:00pm 8.8 5.4 6.1 83 1.2 W 13 17 7 9 1013.8 1013.4 1.4
14/10:30pm 9.2 5.5 6.3 82 1.4 W 15 19 8 10 1013.7 1013.3 1.4
14/10:00pm 9.7 6.4 6.2 79 1.6 WSW 13 17 7 9 1013.5 1013.1 1.4
14/09:30pm 10.3 6.3 6.6 78 1.8 WSW 17 20 9 11 1013.3 1012.9 1.4
14/09:00pm 10.3 6.3 6.6 78 1.8 WSW 17 20 9 11 1013.1 1012.7 1.4
14/08:30pm 10.9 6.6 6.8 76 2.0 SW 19 22 10 12 1012.8 1012.4 1.4
14/08:00pm 11.3 6.5 7.2 76 2.0 SW 22 30 12 16 1012.3 1011.9 1.4
14/07:30pm 11.5 7.3 8.2 80 1.6 SW 20 30 11 16 1012.0 1011.6 1.4
14/07:00pm 11.2 4.7 8.2 82 1.5 SSW 32 48 17 26 1011.5 1011.1 1.4
14/06:30pm 13.3 6.2 6.6 64 3.2 SW 33 46 18 25 1010.6 1010.3 1.4
14/06:00pm 13.6 6.1 6.2 61 3.6 SSW 35 50 19 27 1010.2 1009.9 1.4
14/05:49pm 13.9 6.9 6.0 59 3.8 SSW 32 50 17 27 1010.1 1009.8 1.4
14/05:30pm 13.4 6.5 7.4 67 3.0 SSW 33 44 18 24 1009.8 1009.5 1.4
14/05:00pm 11.7 3.0 8.6 81 1.5 SSW 44 67 24 36 1009.3 1009.0 1.4
14/04:39pm 14.9 6.8 7.0 59 3.9 SW 39 67 21 36 1008.3 1007.9 1.4
14/04:30pm 14.7 6.3 7.3 61 3.7 SSW 41 54 22 29 1008.4 1008.0 1.4
14/04:03pm 15.1 6.4 7.6 61 3.8 SSW 43 61 23 33 1008.0 1007.6 1.4
14/04:00pm 14.4 5.4 7.2 62 3.6 SSW 44 61 24 33 1007.9 1007.5 1.4
14/03:34pm 13.5 6.2 8.6 72 2.5 SSW 37 56 20 30 1007.9 1007.5 1.4
14/03:30pm 13.5 5.8 8.6 72 2.5 SSW 39 56 21 30 1007.7 1007.3 1.4
14/03:00pm 14.8 6.4 9.0 68 3.0 SW 43 63 23 34 1007.0 1006.6 1.2
14/02:34pm 14.4 7.4 9.8 74 2.4 SSW 37 59 20 32 1006.7 1006.3 1.2
14/02:30pm 13.7 7.3 10.7 82 1.6 SSW 35 48 19 26 1006.9 1006.5 1.2
14/02:13pm 13.8 5.4 8.8 72 2.5 SSW 43 72 23 39 1006.4 1006.0 1.0
14/02:00pm 13.9 5.6 9.3 74 2.4 SSW 43 59 23 32 1006.1 1005.7 1.0
14/01:30pm 12.5 5.1 10.0 85 1.3 SSW 39 63 21 34 1006.1 1005.7 1.0
14/01:03pm 12.8 6.5 9.1 78 1.9 SSW 32 50 17 27 1005.5 1005.1 1.0
14/01:00pm 13.4 7.1 9.1 75 2.2 SSW 32 41 17 22 1005.5 1005.1 0.8
14/12:30pm 12.8 4.9 7.7 71 2.5 SSW 39 52 21 28 1005.1 1004.7 0.6
14/12:17pm 14.6 7.3 7.2 61 3.7 SSW 35 56 19 30 1004.8 1004.4 0.6
14/12:00pm 14.0 6.8 7.8 66 3.1 SSW 35 50 19 27 1004.6 1004.2 0.6
14/11:54am 13.8 7.4 8.4 70 2.7 SSW 32 50 17 27 1004.4 1004.1 0.6
14/11:30am 13.3 5.6 8.8 74 2.3 SSW 39 54 21 29 1004.1 1003.8 0.6
14/11:00am 12.7 5.9 9.2 79 1.8 SSW 35 50 19 27 1003.8 1003.5 0.6
14/10:30am 10.7 3.0 8.5 86 1.1 SSW 39 57 21 31 1003.3 1002.9 0.6
14/10:22am 11.5 3.9 7.6 77 1.9 SW 37 57 20 31 1002.7 1002.3 0.2
14/10:00am 10.9 3.4 8.1 83 1.4 SW 37 54 20 29 1002.3 1001.9 0.2
14/09:50am 12.3 4.6 7.2 71 2.5 SW 37 56 20 30 1001.9 1001.5 0.0
14/09:30am 11.7 5.3 8.6 81 1.6 SW 32 43 17 23 1001.6 1001.2 0.0
14/09:00am 11.4 5.1 8.8 84 1.3 SW 32 41 17 22 1000.8 1000.4 15.8
14/08:30am 10.7 4.3 8.5 86 1.1 WSW 32 43 17 23 1000.2 999.8 15.8
14/08:00am 10.0 4.3 8.3 89 0.8 WSW 28 41 15 22 999.3 998.9 15.8
14/07:30am 9.8 3.7 8.1 89 0.8 W 30 43 16 23 998.6 998.1 15.6
14/07:00am 10.0 3.5 8.1 88 0.9 W 32 50 17 27 998.0 997.6 15.2
14/06:59am 10.0 3.5 8.1 88 0.9 W 32 50 17 27 997.9 997.5 15.2
14/06:30am 9.9 4.2 8.3 90 0.8 WNW 28 39 15 21 997.8 997.4 14.8
14/06:00am 9.8 4.4 7.9 88 0.9 WNW 26 37 14 20 997.7 997.3 14.8
14/05:30am 9.6 4.2 7.9 89 0.8 WNW 26 41 14 22 997.9 997.5 14.6
14/05:00am 9.7 3.1 7.8 88 0.9 NW 32 43 17 23 998.1 997.7 14.2
14/04:30am 9.7 3.4 7.6 87 1.0 NW 30 46 16 25 998.7 998.3 14.2
14/04:23am 9.5 3.7 7.8 89 0.8 NW 28 46 15 25 998.8 998.4 14.2
14/04:00am 9.2 2.9 7.5 89 0.8 NW 30 37 16 20 999.3 998.9 14.0
14/03:30am 8.9 2.6 7.2 89 0.8 NW 30 44 16 24 999.8 999.4 14.0
14/03:00am 8.8 2.9 7.3 90 0.7 NW 28 37 15 20 1000.8 1000.4 13.8
14/02:30am 8.6 2.9 6.9 89 0.8 NNW 26 41 14 22 1001.4 1001.0 12.0
14/02:00am 8.6 2.8 6.4 86 1.0 NNW 26 37 14 20 1002.1 1001.7 11.4
14/01:30am 8.5 3.2 6.6 88 0.9 NNW 24 32 13 17 1002.7 1002.3 11.4
14/01:00am 8.3 3.3 6.4 88 0.9 NNW 22 28 12 15 1003.3 1002.9 11.4
14/12:30am 8.4 3.8 6.7 89 0.8 NNW 20 30 11 16 1004.3 1004.0 11.0
14/12:00am 8.4 3.8 6.5 88 0.9 NW 20 30 11 16 1004.8 1004.4 10.8
 
Date/Time
CDT
Temp
°C
App
Temp
°C
Dew
Point
°C
Rel
Hum
%
Delta-T
°C
Wind Press
QNH
hPa
Press
MSL
hPa
Rain since
9am
mm
Dir  Spd
km/h
Gust
km/h
Spd
kts
Gust
kts
13/11:30pm 8.4 2.3 6.4 87 0.9 W 28 43 15 23 1005.7 1005.3 9.8
13/11:03pm 9.5 2.5 6.2 80 1.5 WNW 32 54 17 29 1005.2 1004.8 7.6
13/11:00pm 9.5 2.5 6.2 80 1.5 WNW 32 44 17 24 1005.1 1004.7 7.6
13/10:30pm 10.0 2.4 7.4 84 1.3 NW 37 50 20 27 1005.6 1005.2 7.2
13/10:17pm 10.1 4.2 7.5 84 1.3 NW 28 46 15 25 1005.8 1005.4 7.2
13/10:00pm 9.8 4.3 7.4 85 1.2 NW 26 33 14 18 1006.0 1005.6 7.2
13/09:30pm 9.2 4.8 7.2 87 1.0 NNW 20 26 11 14 1006.3 1005.9 7.2
13/09:00pm 9.6 4.6 6.3 80 1.5 WNW 22 35 12 19 1006.7 1006.3 7.2
13/08:30pm 9.9 4.3 7.0 82 1.4 WNW 26 41 14 22 1007.2 1006.8 7.0
13/08:00pm 11.1 5.2 4.1 62 3.2 WNW 24 35 13 19 1006.9 1006.5 6.4
13/07:30pm 10.8 5.9 4.9 67 2.7 WNW 20 30 11 16 1007.2 1006.8 6.4
13/07:00pm 10.7 1.8 3.3 60 3.3 WNW 39 65 21 35 1007.3 1006.9 6.4
13/06:57pm 10.9 2.1 3.7 61 3.2 WNW 39 65 21 35 1007.7 1007.3 6.4
13/06:56pm 11.1 2.2 3.2 58 3.5 WNW 39 65 21 35 1007.7 1007.3 6.4
13/06:35pm 12.4 4.7 5.3 62 3.3 W 35 54 19 29 1007.3 1006.9 6.4
13/06:34pm 12.5 4.8 5.4 62 3.3 W 35 54 19 29 1007.3 1006.9 6.4
13/06:31pm 13.1 5.4 5.3 59 3.7 WNW 35 54 19 29 1007.2 1006.8 6.4
13/06:30pm 13.4 5.6 4.8 56 4.0 WNW 35 46 19 25 1007.1 1006.7 6.4
13/06:02pm 13.7 6.1 3.8 51 4.5 WNW 33 52 18 28 1007.0 1006.6 6.4
13/06:00pm 13.9 6.6 4.5 53 4.4 WNW 32 44 17 24 1007.0 1006.6 6.4
13/05:30pm 13.8 6.0 4.7 54 4.3 WNW 35 50 19 27 1007.0 1006.6 6.4
13/05:09pm 15.1 8.1 4.2 48 5.1 WNW 30 48 16 26 1006.9 1006.5 6.4
13/05:00pm 14.7 8.7 7.0 60 3.8 WNW 28 39 15 21 1007.0 1006.6 6.4
13/04:30pm 13.6 6.0 6.0 60 3.7 W 35 56 19 30 1007.1 1006.7 6.4
13/04:23pm 14.6 6.7 4.6 51 4.7 WNW 35 56 19 30 1007.0 1006.6 6.4
13/04:00pm 15.0 7.6 4.1 48 5.1 WNW 32 44 17 24 1007.1 1006.7 6.4
13/03:44pm 14.0 6.8 4.9 54 4.3 W 32 50 17 27 1007.2 1006.8 6.4
13/03:30pm 14.9 7.2 3.4 46 5.3 WNW 33 44 18 24 1007.3 1006.9 6.4
13/03:00pm 14.9 7.8 3.4 46 5.3 W 30 43 16 23 1007.6 1007.2 6.4
13/02:30pm 13.9 6.7 5.0 55 4.2 WSW 32 50 17 27 1007.6 1007.2 6.4
13/02:13pm 15.5 8.7 6.8 56 4.3 W 32 50 17 27 1007.8 1007.4 6.4
13/02:00pm 14.5 7.7 7.1 61 3.7 W 32 46 17 25 1007.9 1007.5 6.4
13/01:30pm 11.2 5.1 6.5 73 2.2 W 28 46 15 25 1008.4 1008.0 6.4
13/01:00pm 14.8 8.1 5.6 54 4.4 WNW 30 43 16 23 1008.3 1007.9 6.0
13/12:30pm 14.2 7.3 4.5 52 4.5 W 30 43 16 23 1008.7 1008.3 6.0
13/12:00pm 12.0 6.3 6.7 70 2.6 NW 26 33 14 18 1009.2 1008.9 6.0
13/11:30am 10.9 5.2 6.8 76 2.0 NW 26 41 14 22 1009.4 1009.1 6.0
13/11:00am 8.1 3.0 6.1 87 0.9 NW 22 28 12 15 1009.6 1009.3 6.0
13/10:30am 6.9 2.0 5.1 88 0.8 WNW 20 32 11 17 1010.0 1009.7 5.8
13/10:00am 6.9 0.5 3.0 76 1.6 W 26 39 14 21 1010.2 1009.9 1.6
13/09:30am 11.8 5.4 5.4 65 3.0 NW 28 41 15 22 1009.2 1008.9 0.0
13/09:00am 10.9 5.0 5.7 70 2.4 NNW 26 32 14 17 1009.3 1009.0 0.0
13/08:30am 9.9 4.9 6.3 78 1.7 NNW 22 30 12 16 1009.4 1009.1 0.0
13/08:00am 8.6 4.4 5.9 83 1.2 NNW 17 22 9 12 1009.2 1008.9 0.0
13/07:30am 7.5 3.3 5.5 87 0.9 NNW 17 20 9 11 1009.1 1008.8 0.0

Other formats

Comma delimited format used in spreadsheet applications
http://www.bom.gov.au/fwo/IDS60801/IDS60801.95662.axf

JavaScript Object Notation format (JSON) in row-major order
http://www.bom.gov.au/fwo/IDS60801/IDS60801.95662.json

Data quality

Most of these data are generated automatically and are frequently updated. Quality checks on data are not normally performed. It is possible for incorrect values to appear. Refer to information at About Latest Weather Observations and please check the disclaimer before using these data.